sensor_id;sensor_type;location;lat;lon;timestamp;temperature;humidity
13346;DHT22;6742;48.036;15.780;2023-01-15T00:00:38;5.50;99.90
13346;DHT22;6742;48.036;15.780;2023-01-15T00:03:05;5.50;99.90
13346;DHT22;6742;48.036;15.780;2023-01-15T00:05:34;5.50;99.90
13346;DHT22;6742;48.036;15.780;2023-01-15T00:08:04;5.50;99.90
13346;DHT22;6742;48.036;15.780;2023-01-15T00:10:31;5.50;99.90
13346;DHT22;6742;48.036;15.780;2023-01-15T00:12:58;5.60;99.90
13346;DHT22;6742;48.036;15.780;2023-01-15T00:15:25;5.50;99.90
13346;DHT22;6742;48.036;15.780;2023-01-15T00:17:54;5.50;99.90
13346;DHT22;6742;48.036;15.780;2023-01-15T00:20:24;5.50;99.90
13346;DHT22;6742;48.036;15.780;2023-01-15T00:22:51;5.50;99.90
13346;DHT22;6742;48.036;15.780;2023-01-15T00:25:17;5.50;99.90
13346;DHT22;6742;48.036;15.780;2023-01-15T00:28:02;5.50;99.90
13346;DHT22;6742;48.036;15.780;2023-01-15T00:30:29;5.50;99.90
13346;DHT22;6742;48.036;15.780;2023-01-15T00:32:58;5.50;99.90
13346;DHT22;6742;48.036;15.780;2023-01-15T00:35:25;5.40;99.90
13346;DHT22;6742;48.036;15.780;2023-01-15T00:37:52;5.30;99.90
13346;DHT22;6742;48.036;15.780;2023-01-15T00:40:22;5.30;99.90
13346;DHT22;6742;48.036;15.780;2023-01-15T00:42:49;5.40;99.90
13346;DHT22;6742;48.036;15.780;2023-01-15T00:45:16;5.40;99.90
13346;DHT22;6742;48.036;15.780;2023-01-15T00:47:44;5.50;99.90
13346;DHT22;6742;48.036;15.780;2023-01-15T00:50:14;5.40;99.90
13346;DHT22;6742;48.036;15.780;2023-01-15T00:52:41;5.40;99.90
13346;DHT22;6742;48.036;15.780;2023-01-15T00:55:08;5.50;99.90
13346;DHT22;6742;48.036;15.780;2023-01-15T00:57:35;5.50;99.90
13346;DHT22;6742;48.036;15.780;2023-01-15T01:00:03;5.60;99.90
13346;DHT22;6742;48.036;15.780;2023-01-15T01:02:30;5.60;99.90
13346;DHT22;6742;48.036;15.780;2023-01-15T01:04:57;5.70;99.90
13346;DHT22;6742;48.036;15.780;2023-01-15T01:07:26;5.60;99.90
13346;DHT22;6742;48.036;15.780;2023-01-15T01:09:52;5.60;99.90
13346;DHT22;6742;48.036;15.780;2023-01-15T01:12:19;5.50;99.90
13346;DHT22;6742;48.036;15.780;2023-01-15T01:14:48;5.40;99.90
13346;DHT22;6742;48.036;15.780;2023-01-15T01:17:15;5.40;99.90
13346;DHT22;6742;48.036;15.780;2023-01-15T01:19:42;5.30;99.90
13346;DHT22;6742;48.036;15.780;2023-01-15T01:22:08;5.20;99.90
13346;DHT22;6742;48.036;15.780;2023-01-15T01:24:37;5.20;99.90
13346;DHT22;6742;48.036;15.780;2023-01-15T01:27:04;5.20;99.90
13346;DHT22;6742;48.036;15.780;2023-01-15T01:29:31;5.30;99.90
13346;DHT22;6742;48.036;15.780;2023-01-15T01:31:58;5.40;99.90
13346;DHT22;6742;48.036;15.780;2023-01-15T01:34:25;5.20;99.90
13346;DHT22;6742;48.036;15.780;2023-01-15T01:36:52;5.20;99.90
13346;DHT22;6742;48.036;15.780;2023-01-15T01:39:19;5.10;99.90
13346;DHT22;6742;48.036;15.780;2023-01-15T01:41:47;5.20;99.90
13346;DHT22;6742;48.036;15.780;2023-01-15T01:47:21;5.30;99.90
13346;DHT22;6742;48.036;15.780;2023-01-15T01:49:52;5.40;99.90
13346;DHT22;6742;48.036;15.780;2023-01-15T01:52:22;5.50;99.90
13346;DHT22;6742;48.036;15.780;2023-01-15T01:54:52;5.50;99.90
13346;DHT22;6742;48.036;15.780;2023-01-15T01:57:22;5.40;99.90
13346;DHT22;6742;48.036;15.780;2023-01-15T01:59:51;5.40;99.90
13346;DHT22;6742;48.036;15.780;2023-01-15T02:02:19;5.40;99.90
13346;DHT22;6742;48.036;15.780;2023-01-15T02:04:47;5.40;99.90
13346;DHT22;6742;48.036;15.780;2023-01-15T02:07:14;5.40;99.90
13346;DHT22;6742;48.036;15.780;2023-01-15T02:09:42;5.40;99.90
13346;DHT22;6742;48.036;15.780;2023-01-15T02:12:13;5.30;99.90
13346;DHT22;6742;48.036;15.780;2023-01-15T02:14:50;5.30;99.90
13346;DHT22;6742;48.036;15.780;2023-01-15T02:17:26;5.40;99.90
13346;DHT22;6742;48.036;15.780;2023-01-15T02:20:05;5.30;99.90
13346;DHT22;6742;48.036;15.780;2023-01-15T02:22:41;5.40;99.90
13346;DHT22;6742;48.036;15.780;2023-01-15T02:25:16;5.20;99.90
13346;DHT22;6742;48.036;15.780;2023-01-15T02:27:50;5.20;99.90
13346;DHT22;6742;48.036;15.780;2023-01-15T02:30:23;5.20;99.90
13346;DHT22;6742;48.036;15.780;2023-01-15T02:32:53;5.30;99.90
13346;DHT22;6742;48.036;15.780;2023-01-15T02:35:29;5.30;99.90
13346;DHT22;6742;48.036;15.780;2023-01-15T02:38:03;5.30;99.90
13346;DHT22;6742;48.036;15.780;2023-01-15T02:40:31;5.40;99.90
13346;DHT22;6742;48.036;15.780;2023-01-15T02:43:01;5.40;99.90
13346;DHT22;6742;48.036;15.780;2023-01-15T02:45:30;5.50;99.90
13346;DHT22;6742;48.036;15.780;2023-01-15T02:48:02;5.50;99.90
13346;DHT22;6742;48.036;15.780;2023-01-15T02:50:34;5.50;99.90
13346;DHT22;6742;48.036;15.780;2023-01-15T02:53:05;5.50;99.90
13346;DHT22;6742;48.036;15.780;2023-01-15T02:55:37;5.50;99.90
13346;DHT22;6742;48.036;15.780;2023-01-15T02:58:10;5.50;99.90
13346;DHT22;6742;48.036;15.780;2023-01-15T03:00:40;5.60;99.90
13346;DHT22;6742;48.036;15.780;2023-01-15T03:03:12;5.50;99.90
13346;DHT22;6742;48.036;15.780;2023-01-15T03:05:44;5.50;99.90
13346;DHT22;6742;48.036;15.780;2023-01-15T03:08:13;5.50;99.90
13346;DHT22;6742;48.036;15.780;2023-01-15T03:10:47;5.40;99.90
13346;DHT22;6742;48.036;15.780;2023-01-15T03:13:22;5.50;99.90
13346;DHT22;6742;48.036;15.780;2023-01-15T03:15:57;5.40;99.90
13346;DHT22;6742;48.036;15.780;2023-01-15T03:18:46;5.40;99.90
13346;DHT22;6742;48.036;15.780;2023-01-15T03:21:20;5.40;99.90
13346;DHT22;6742;48.036;15.780;2023-01-15T03:23:51;5.40;99.90
13346;DHT22;6742;48.036;15.780;2023-01-15T03:26:19;5.40;99.90
13346;DHT22;6742;48.036;15.780;2023-01-15T03:28:48;5.40;99.90
13346;DHT22;6742;48.036;15.780;2023-01-15T03:31:16;5.50;99.90
13346;DHT22;6742;48.036;15.780;2023-01-15T03:33:43;5.50;99.90
13346;DHT22;6742;48.036;15.780;2023-01-15T03:36:10;5.50;99.90
13346;DHT22;6742;48.036;15.780;2023-01-15T03:38:40;5.50;99.90
13346;DHT22;6742;48.036;15.780;2023-01-15T03:41:14;5.50;99.90
13346;DHT22;6742;48.036;15.780;2023-01-15T03:43:57;5.40;99.90
13346;DHT22;6742;48.036;15.780;2023-01-15T03:49:23;5.40;99.90
13346;DHT22;6742;48.036;15.780;2023-01-15T03:51:58;5.30;99.90
13346;DHT22;6742;48.036;15.780;2023-01-15T03:54:34;5.30;99.90
13346;DHT22;6742;48.036;15.780;2023-01-15T03:57:07;5.20;99.90
13346;DHT22;6742;48.036;15.780;2023-01-15T03:59:39;5.20;99.90
13346;DHT22;6742;48.036;15.780;2023-01-15T04:02:10;5.10;99.90
13346;DHT22;6742;48.036;15.780;2023-01-15T04:04:39;5.20;99.90
13346;DHT22;6742;48.036;15.780;2023-01-15T04:07:06;5.20;99.90
13346;DHT22;6742;48.036;15.780;2023-01-15T04:09:36;5.20;99.90
13346;DHT22;6742;48.036;15.780;2023-01-15T04:12:04;5.20;99.90
13346;DHT22;6742;48.036;15.780;2023-01-15T04:14:32;5.20;99.90
13346;DHT22;6742;48.036;15.780;2023-01-15T04:17:01;5.20;99.90
13346;DHT22;6742;48.036;15.780;2023-01-15T04:19:27;5.30;99.90
13346;DHT22;6742;48.036;15.780;2023-01-15T04:21:54;5.30;99.90
13346;DHT22;6742;48.036;15.780;2023-01-15T04:24:21;5.30;99.90
13346;DHT22;6742;48.036;15.780;2023-01-15T04:26:48;5.40;99.90
13346;DHT22;6742;48.036;15.780;2023-01-15T04:29:15;5.30;99.90
13346;DHT22;6742;48.036;15.780;2023-01-15T04:31:42;5.40;99.90
13346;DHT22;6742;48.036;15.780;2023-01-15T04:34:10;5.30;99.90
13346;DHT22;6742;48.036;15.780;2023-01-15T04:36:37;5.10;99.90
13346;DHT22;6742;48.036;15.780;2023-01-15T04:39:04;5.10;99.90
13346;DHT22;6742;48.036;15.780;2023-01-15T04:41:31;5.10;99.90
13346;DHT22;6742;48.036;15.780;2023-01-15T04:44:16;5.20;99.90
13346;DHT22;6742;48.036;15.780;2023-01-15T04:46:44;5.20;99.90
13346;DHT22;6742;48.036;15.780;2023-01-15T04:49:17;5.20;99.90
13346;DHT22;6742;48.036;15.780;2023-01-15T04:51:44;5.20;99.90
13346;DHT22;6742;48.036;15.780;2023-01-15T04:54:13;5.30;99.90
13346;DHT22;6742;48.036;15.780;2023-01-15T04:56:41;5.30;99.90
13346;DHT22;6742;48.036;15.780;2023-01-15T04:59:09;5.30;99.90
13346;DHT22;6742;48.036;15.780;2023-01-15T05:01:38;5.30;99.90
13346;DHT22;6742;48.036;15.780;2023-01-15T05:04:06;5.40;99.90
13346;DHT22;6742;48.036;15.780;2023-01-15T05:06:37;5.30;99.90
13346;DHT22;6742;48.036;15.780;2023-01-15T05:09:07;5.30;99.90
13346;DHT22;6742;48.036;15.780;2023-01-15T05:11:35;5.30;99.90
13346;DHT22;6742;48.036;15.780;2023-01-15T05:14:02;5.30;99.90
13346;DHT22;6742;48.036;15.780;2023-01-15T05:16:29;5.30;99.90
13346;DHT22;6742;48.036;15.780;2023-01-15T05:18:58;5.30;99.90
13346;DHT22;6742;48.036;15.780;2023-01-15T05:21:29;5.50;99.90
13346;DHT22;6742;48.036;15.780;2023-01-15T05:23:59;5.40;99.90
13346;DHT22;6742;48.036;15.780;2023-01-15T05:26:28;5.40;99.90
13346;DHT22;6742;48.036;15.780;2023-01-15T05:28:57;5.40;99.90
13346;DHT22;6742;48.036;15.780;2023-01-15T05:31:25;5.50;99.90
13346;DHT22;6742;48.036;15.780;2023-01-15T05:33:53;5.40;99.90
13346;DHT22;6742;48.036;15.780;2023-01-15T05:36:22;5.50;99.90
13346;DHT22;6742;48.036;15.780;2023-01-15T05:38:49;5.40;99.90
13346;DHT22;6742;48.036;15.780;2023-01-15T05:41:21;5.40;99.90
13346;DHT22;6742;48.036;15.780;2023-01-15T05:44:07;5.40;99.90
13346;DHT22;6742;48.036;15.780;2023-01-15T05:46:37;5.40;99.90
13346;DHT22;6742;48.036;15.780;2023-01-15T05:49:05;5.40;99.90
13346;DHT22;6742;48.036;15.780;2023-01-15T05:51:33;5.40;99.90
13346;DHT22;6742;48.036;15.780;2023-01-15T05:54:01;5.40;99.90
13346;DHT22;6742;48.036;15.780;2023-01-15T05:56:29;5.40;99.90
13346;DHT22;6742;48.036;15.780;2023-01-15T05:58:56;5.40;99.90
13346;DHT22;6742;48.036;15.780;2023-01-15T06:01:23;5.40;99.90
13346;DHT22;6742;48.036;15.780;2023-01-15T06:03:50;5.50;99.90
13346;DHT22;6742;48.036;15.780;2023-01-15T06:06:18;5.50;99.90
13346;DHT22;6742;48.036;15.780;2023-01-15T06:08:45;5.50;99.90
13346;DHT22;6742;48.036;15.780;2023-01-15T06:11:12;5.50;99.90
13346;DHT22;6742;48.036;15.780;2023-01-15T06:13:40;5.60;99.90
13346;DHT22;6742;48.036;15.780;2023-01-15T06:16:08;5.60;99.90
13346;DHT22;6742;48.036;15.780;2023-01-15T06:18:36;5.60;99.90
13346;DHT22;6742;48.036;15.780;2023-01-15T06:21:04;5.50;99.90
13346;DHT22;6742;48.036;15.780;2023-01-15T06:23:32;5.50;99.90
13346;DHT22;6742;48.036;15.780;2023-01-15T06:26:01;5.50;99.90
13346;DHT22;6742;48.036;15.780;2023-01-15T06:28:29;5.50;99.90
13346;DHT22;6742;48.036;15.780;2023-01-15T06:30:57;5.60;99.90
13346;DHT22;6742;48.036;15.780;2023-01-15T06:33:27;5.60;99.90
13346;DHT22;6742;48.036;15.780;2023-01-15T06:35:54;5.70;99.90
13346;DHT22;6742;48.036;15.780;2023-01-15T06:38:20;5.60;99.90
13346;DHT22;6742;48.036;15.780;2023-01-15T06:40:47;5.60;99.90
13346;DHT22;6742;48.036;15.780;2023-01-15T06:43:14;5.60;99.90
13346;DHT22;6742;48.036;15.780;2023-01-15T06:46:00;5.60;99.90
13346;DHT22;6742;48.036;15.780;2023-01-15T06:48:44;5.60;99.90
13346;DHT22;6742;48.036;15.780;2023-01-15T06:51:12;5.60;99.90
13346;DHT22;6742;48.036;15.780;2023-01-15T06:53:40;5.50;99.90
13346;DHT22;6742;48.036;15.780;2023-01-15T06:56:07;5.50;99.90
13346;DHT22;6742;48.036;15.780;2023-01-15T06:58:34;5.40;99.90
13346;DHT22;6742;48.036;15.780;2023-01-15T07:01:08;5.30;99.90
13346;DHT22;6742;48.036;15.780;2023-01-15T07:03:35;5.30;99.90
13346;DHT22;6742;48.036;15.780;2023-01-15T07:06:05;5.20;99.90
13346;DHT22;6742;48.036;15.780;2023-01-15T07:08:32;5.20;99.90
13346;DHT22;6742;48.036;15.780;2023-01-15T07:11:02;5.20;99.90
13346;DHT22;6742;48.036;15.780;2023-01-15T07:13:29;5.20;99.90
13346;DHT22;6742;48.036;15.780;2023-01-15T07:15:58;5.20;99.90
13346;DHT22;6742;48.036;15.780;2023-01-15T07:18:27;5.20;99.90
13346;DHT22;6742;48.036;15.780;2023-01-15T07:20:54;5.40;99.90
13346;DHT22;6742;48.036;15.780;2023-01-15T07:23:22;5.50;99.90
13346;DHT22;6742;48.036;15.780;2023-01-15T07:25:50;5.50;99.90
13346;DHT22;6742;48.036;15.780;2023-01-15T07:28:17;5.50;99.90
13346;DHT22;6742;48.036;15.780;2023-01-15T07:30:44;5.30;99.90
13346;DHT22;6742;48.036;15.780;2023-01-15T07:33:11;5.30;99.90
13346;DHT22;6742;48.036;15.780;2023-01-15T07:35:39;5.20;99.90
13346;DHT22;6742;48.036;15.780;2023-01-15T07:38:06;5.30;99.90
13346;DHT22;6742;48.036;15.780;2023-01-15T07:40:33;5.40;99.90
13346;DHT22;6742;48.036;15.780;2023-01-15T07:43:00;5.30;99.90
13346;DHT22;6742;48.036;15.780;2023-01-15T07:45:45;5.20;99.90
13346;DHT22;6742;48.036;15.780;2023-01-15T07:48:29;5.20;99.90
13346;DHT22;6742;48.036;15.780;2023-01-15T07:51:14;5.30;99.90
13346;DHT22;6742;48.036;15.780;2023-01-15T07:53:41;5.30;99.90
13346;DHT22;6742;48.036;15.780;2023-01-15T07:56:08;5.30;99.90
13346;DHT22;6742;48.036;15.780;2023-01-15T07:58:36;5.40;99.90
13346;DHT22;6742;48.036;15.780;2023-01-15T08:01:03;5.50;99.90
13346;DHT22;6742;48.036;15.780;2023-01-15T08:03:30;5.60;99.90
13346;DHT22;6742;48.036;15.780;2023-01-15T08:05:57;5.60;99.90
13346;DHT22;6742;48.036;15.780;2023-01-15T08:08:25;5.60;99.90
13346;DHT22;6742;48.036;15.780;2023-01-15T08:10:52;5.60;99.90
13346;DHT22;6742;48.036;15.780;2023-01-15T08:13:36;5.60;99.90
13346;DHT22;6742;48.036;15.780;2023-01-15T08:16:20;5.70;99.90
13346;DHT22;6742;48.036;15.780;2023-01-15T08:18:47;5.80;99.90
13346;DHT22;6742;48.036;15.780;2023-01-15T08:21:14;5.80;99.90
13346;DHT22;6742;48.036;15.780;2023-01-15T08:23:43;6.00;99.90
13346;DHT22;6742;48.036;15.780;2023-01-15T08:26:12;6.00;99.90
13346;DHT22;6742;48.036;15.780;2023-01-15T08:28:39;6.00;99.90
13346;DHT22;6742;48.036;15.780;2023-01-15T08:31:06;6.10;99.90
13346;DHT22;6742;48.036;15.780;2023-01-15T08:33:34;6.10;99.90
13346;DHT22;6742;48.036;15.780;2023-01-15T08:36:01;6.20;99.90
13346;DHT22;6742;48.036;15.780;2023-01-15T08:38:28;6.10;99.90
13346;DHT22;6742;48.036;15.780;2023-01-15T08:40:56;6.10;99.90
13346;DHT22;6742;48.036;15.780;2023-01-15T08:43:29;6.10;99.90
13346;DHT22;6742;48.036;15.780;2023-01-15T08:45:57;6.10;99.90
13346;DHT22;6742;48.036;15.780;2023-01-15T08:48:25;6.10;99.90
13346;DHT22;6742;48.036;15.780;2023-01-15T08:50:52;6.10;99.90
13346;DHT22;6742;48.036;15.780;2023-01-15T08:53:19;6.10;99.90
13346;DHT22;6742;48.036;15.780;2023-01-15T08:55:46;6.00;99.90
13346;DHT22;6742;48.036;15.780;2023-01-15T08:58:16;6.10;99.90
13346;DHT22;6742;48.036;15.780;2023-01-15T09:00:43;6.10;99.90
13346;DHT22;6742;48.036;15.780;2023-01-15T09:03:10;6.10;99.90
13346;DHT22;6742;48.036;15.780;2023-01-15T09:05:37;6.20;99.90
13346;DHT22;6742;48.036;15.780;2023-01-15T09:08:04;6.30;99.90
13346;DHT22;6742;48.036;15.780;2023-01-15T09:10:32;6.30;99.90
13346;DHT22;6742;48.036;15.780;2023-01-15T09:12:59;6.30;99.90
13346;DHT22;6742;48.036;15.780;2023-01-15T09:15:28;6.40;99.90
13346;DHT22;6742;48.036;15.780;2023-01-15T09:17:56;6.40;99.90
13346;DHT22;6742;48.036;15.780;2023-01-15T09:20:23;6.50;99.90
13346;DHT22;6742;48.036;15.780;2023-01-15T09:22:50;6.60;99.90
13346;DHT22;6742;48.036;15.780;2023-01-15T09:25:18;6.60;99.90
13346;DHT22;6742;48.036;15.780;2023-01-15T09:27:48;6.70;99.90
13346;DHT22;6742;48.036;15.780;2023-01-15T09:30:17;6.70;99.90
13346;DHT22;6742;48.036;15.780;2023-01-15T09:32:46;6.70;99.90
13346;DHT22;6742;48.036;15.780;2023-01-15T09:35:14;6.80;99.90
13346;DHT22;6742;48.036;15.780;2023-01-15T09:37:41;6.80;99.90
13346;DHT22;6742;48.036;15.780;2023-01-15T09:40:22;6.80;99.90
13346;DHT22;6742;48.036;15.780;2023-01-15T09:42:59;6.90;99.90
13346;DHT22;6742;48.036;15.780;2023-01-15T09:45:36;6.90;99.90
13346;DHT22;6742;48.036;15.780;2023-01-15T09:48:28;6.90;99.90
13346;DHT22;6742;48.036;15.780;2023-01-15T09:51:11;7.10;99.90
13346;DHT22;6742;48.036;15.780;2023-01-15T09:53:55;7.10;99.90
13346;DHT22;6742;48.036;15.780;2023-01-15T09:56:32;7.00;99.90
13346;DHT22;6742;48.036;15.780;2023-01-15T09:59:04;7.00;99.90
13346;DHT22;6742;48.036;15.780;2023-01-15T10:01:35;7.00;99.90
13346;DHT22;6742;48.036;15.780;2023-01-15T10:04:11;7.00;99.90
13346;DHT22;6742;48.036;15.780;2023-01-15T10:06:46;7.20;99.90
13346;DHT22;6742;48.036;15.780;2023-01-15T10:09:20;7.10;99.90
13346;DHT22;6742;48.036;15.780;2023-01-15T10:11:51;7.10;99.90
13346;DHT22;6742;48.036;15.780;2023-01-15T10:14:47;7.10;99.90
13346;DHT22;6742;48.036;15.780;2023-01-15T10:17:24;7.00;99.90
13346;DHT22;6742;48.036;15.780;2023-01-15T10:19:54;6.90;99.90
13346;DHT22;6742;48.036;15.780;2023-01-15T10:22:38;6.90;99.90
13346;DHT22;6742;48.036;15.780;2023-01-15T10:25:14;6.90;99.90
13346;DHT22;6742;48.036;15.780;2023-01-15T10:27:45;6.90;99.90
13346;DHT22;6742;48.036;15.780;2023-01-15T10:30:16;7.00;99.90
13346;DHT22;6742;48.036;15.780;2023-01-15T10:32:44;7.00;99.90
13346;DHT22;6742;48.036;15.780;2023-01-15T10:35:26;6.90;99.90
13346;DHT22;6742;48.036;15.780;2023-01-15T10:38:01;6.90;99.90
13346;DHT22;6742;48.036;15.780;2023-01-15T10:41:00;6.90;99.90
13346;DHT22;6742;48.036;15.780;2023-01-15T10:43:39;6.80;99.90
13346;DHT22;6742;48.036;15.780;2023-01-15T10:46:11;6.80;99.90
13346;DHT22;6742;48.036;15.780;2023-01-15T10:48:43;6.80;99.90
13346;DHT22;6742;48.036;15.780;2023-01-15T10:51:16;6.80;99.90
13346;DHT22;6742;48.036;15.780;2023-01-15T10:53:46;6.80;99.90
13346;DHT22;6742;48.036;15.780;2023-01-15T10:56:20;6.80;99.90
13346;DHT22;6742;48.036;15.780;2023-01-15T10:58:53;6.80;99.90
13346;DHT22;6742;48.036;15.780;2023-01-15T11:01:23;6.80;99.90
13346;DHT22;6742;48.036;15.780;2023-01-15T11:03:52;6.80;99.90
13346;DHT22;6742;48.036;15.780;2023-01-15T11:06:22;6.80;99.90
13346;DHT22;6742;48.036;15.780;2023-01-15T11:08:52;6.80;99.90
13346;DHT22;6742;48.036;15.780;2023-01-15T11:11:22;6.80;99.90
13346;DHT22;6742;48.036;15.780;2023-01-15T11:14:14;6.80;99.90
13346;DHT22;6742;48.036;15.780;2023-01-15T11:16:59;6.80;99.90
13346;DHT22;6742;48.036;15.780;2023-01-15T11:19:44;6.80;99.90
13346;DHT22;6742;48.036;15.780;2023-01-15T11:22:17;6.80;99.90
13346;DHT22;6742;48.036;15.780;2023-01-15T11:24:47;6.90;99.90
13346;DHT22;6742;48.036;15.780;2023-01-15T11:27:17;6.90;99.90
13346;DHT22;6742;48.036;15.780;2023-01-15T11:29:44;6.90;99.90
13346;DHT22;6742;48.036;15.780;2023-01-15T11:32:28;6.90;99.90
13346;DHT22;6742;48.036;15.780;2023-01-15T11:34:57;6.80;99.90
13346;DHT22;6742;48.036;15.780;2023-01-15T11:37:27;6.80;99.90
13346;DHT22;6742;48.036;15.780;2023-01-15T11:39:55;6.70;99.90
13346;DHT22;6742;48.036;15.780;2023-01-15T11:42:24;6.70;99.90
13346;DHT22;6742;48.036;15.780;2023-01-15T11:45:14;6.70;99.90
13346;DHT22;6742;48.036;15.780;2023-01-15T11:48:15;6.80;99.90
13346;DHT22;6742;48.036;15.780;2023-01-15T11:51:03;6.80;99.90
13346;DHT22;6742;48.036;15.780;2023-01-15T11:53:37;6.80;99.90
13346;DHT22;6742;48.036;15.780;2023-01-15T11:56:09;6.80;99.90
13346;DHT22;6742;48.036;15.780;2023-01-15T11:58:40;6.80;99.90
13346;DHT22;6742;48.036;15.780;2023-01-15T12:01:11;6.70;99.90
13346;DHT22;6742;48.036;15.780;2023-01-15T12:03:40;6.80;99.90
13346;DHT22;6742;48.036;15.780;2023-01-15T12:06:09;6.70;99.90
13346;DHT22;6742;48.036;15.780;2023-01-15T12:08:45;6.70;99.90
13346;DHT22;6742;48.036;15.780;2023-01-15T12:11:30;6.80;99.90
13346;DHT22;6742;48.036;15.780;2023-01-15T12:14:08;6.80;99.90
13346;DHT22;6742;48.036;15.780;2023-01-15T12:16:47;6.80;99.90
13346;DHT22;6742;48.036;15.780;2023-01-15T12:19:20;6.80;99.90
13346;DHT22;6742;48.036;15.780;2023-01-15T12:22:15;6.80;99.90
13346;DHT22;6742;48.036;15.780;2023-01-15T12:27:58;6.70;99.90
13346;DHT22;6742;48.036;15.780;2023-01-15T12:30:32;6.60;99.90
13346;DHT22;6742;48.036;15.780;2023-01-15T12:33:14;6.60;99.90
13346;DHT22;6742;48.036;15.780;2023-01-15T12:35:49;6.60;99.90
13346;DHT22;6742;48.036;15.780;2023-01-15T12:38:27;6.50;99.90
13346;DHT22;6742;48.036;15.780;2023-01-15T12:41:03;6.40;99.90
13346;DHT22;6742;48.036;15.780;2023-01-15T12:43:32;6.40;99.90
13346;DHT22;6742;48.036;15.780;2023-01-15T12:46:22;6.40;99.90
13346;DHT22;6742;48.036;15.780;2023-01-15T12:48:55;6.50;99.90
13346;DHT22;6742;48.036;15.780;2023-01-15T12:51:27;6.40;99.90
13346;DHT22;6742;48.036;15.780;2023-01-15T12:54:00;6.40;99.90
13346;DHT22;6742;48.036;15.780;2023-01-15T12:56:40;6.40;99.90
13346;DHT22;6742;48.036;15.780;2023-01-15T12:59:13;6.40;99.90
13346;DHT22;6742;48.036;15.780;2023-01-15T13:01:49;6.40;99.90
13346;DHT22;6742;48.036;15.780;2023-01-15T13:04:23;6.40;99.90
13346;DHT22;6742;48.036;15.780;2023-01-15T13:06:57;6.40;99.90
13346;DHT22;6742;48.036;15.780;2023-01-15T13:09:34;6.30;99.90
13346;DHT22;6742;48.036;15.780;2023-01-15T13:12:10;6.30;99.90
13346;DHT22;6742;48.036;15.780;2023-01-15T13:14:37;6.20;99.90
13346;DHT22;6742;48.036;15.780;2023-01-15T13:17:10;6.20;99.90
13346;DHT22;6742;48.036;15.780;2023-01-15T13:19:48;6.20;99.90
13346;DHT22;6742;48.036;15.780;2023-01-15T13:22:20;6.20;99.90
13346;DHT22;6742;48.036;15.780;2023-01-15T13:25:00;6.20;99.90
13346;DHT22;6742;48.036;15.780;2023-01-15T13:27:54;6.20;99.90
13346;DHT22;6742;48.036;15.780;2023-01-15T13:30:41;6.20;99.90
13346;DHT22;6742;48.036;15.780;2023-01-15T13:33:17;6.10;99.90
13346;DHT22;6742;48.036;15.780;2023-01-15T13:35:51;6.00;99.90
13346;DHT22;6742;48.036;15.780;2023-01-15T13:38:21;6.10;99.90
13346;DHT22;6742;48.036;15.780;2023-01-15T13:40:52;6.10;99.90
13346;DHT22;6742;48.036;15.780;2023-01-15T13:43:26;6.20;99.90
13346;DHT22;6742;48.036;15.780;2023-01-15T13:45:56;6.20;99.90
13346;DHT22;6742;48.036;15.780;2023-01-15T13:48:29;6.20;99.90
13346;DHT22;6742;48.036;15.780;2023-01-15T13:50:58;6.30;99.90
13346;DHT22;6742;48.036;15.780;2023-01-15T13:53:27;6.30;99.90
13346;DHT22;6742;48.036;15.780;2023-01-15T13:56:00;6.40;99.90
13346;DHT22;6742;48.036;15.780;2023-01-15T13:58:32;6.40;99.90
13346;DHT22;6742;48.036;15.780;2023-01-15T14:01:02;6.40;99.90
13346;DHT22;6742;48.036;15.780;2023-01-15T14:03:31;6.50;99.90
13346;DHT22;6742;48.036;15.780;2023-01-15T14:06:00;6.50;99.90
13346;DHT22;6742;48.036;15.780;2023-01-15T14:08:35;6.40;99.90
13346;DHT22;6742;48.036;15.780;2023-01-15T14:11:02;6.60;99.90
13346;DHT22;6742;48.036;15.780;2023-01-15T14:13:42;6.60;99.90
13346;DHT22;6742;48.036;15.780;2023-01-15T14:16:21;6.60;99.90
13346;DHT22;6742;48.036;15.780;2023-01-15T14:19:19;6.60;99.90
13346;DHT22;6742;48.036;15.780;2023-01-15T14:21:55;6.60;99.90
13346;DHT22;6742;48.036;15.780;2023-01-15T14:24:43;6.60;99.90
13346;DHT22;6742;48.036;15.780;2023-01-15T14:27:22;6.70;99.90
13346;DHT22;6742;48.036;15.780;2023-01-15T14:30:05;6.70;99.90
13346;DHT22;6742;48.036;15.780;2023-01-15T14:32:48;6.80;99.90
13346;DHT22;6742;48.036;15.780;2023-01-15T14:35:20;6.80;99.90
13346;DHT22;6742;48.036;15.780;2023-01-15T14:37:50;6.80;99.90
13346;DHT22;6742;48.036;15.780;2023-01-15T14:40:21;6.80;99.90
13346;DHT22;6742;48.036;15.780;2023-01-15T14:42:51;6.80;99.90
13346;DHT22;6742;48.036;15.780;2023-01-15T14:45:30;6.80;99.90
13346;DHT22;6742;48.036;15.780;2023-01-15T14:48:00;6.80;99.90
13346;DHT22;6742;48.036;15.780;2023-01-15T14:50:33;6.80;99.90
13346;DHT22;6742;48.036;15.780;2023-01-15T14:53:18;6.80;99.90
13346;DHT22;6742;48.036;15.780;2023-01-15T14:55:49;6.80;99.90
13346;DHT22;6742;48.036;15.780;2023-01-15T14:58:29;6.80;99.90
13346;DHT22;6742;48.036;15.780;2023-01-15T15:01:01;6.70;99.90
13346;DHT22;6742;48.036;15.780;2023-01-15T15:03:34;6.70;99.90
13346;DHT22;6742;48.036;15.780;2023-01-15T15:06:04;6.60;99.90
13346;DHT22;6742;48.036;15.780;2023-01-15T15:08:32;6.60;99.90
13346;DHT22;6742;48.036;15.780;2023-01-15T15:11:01;6.60;99.90
13346;DHT22;6742;48.036;15.780;2023-01-15T15:13:51;6.60;99.90
13346;DHT22;6742;48.036;15.780;2023-01-15T15:16:25;6.60;99.90
13346;DHT22;6742;48.036;15.780;2023-01-15T15:18:57;6.50;99.90
13346;DHT22;6742;48.036;15.780;2023-01-15T15:21:28;6.50;99.90
13346;DHT22;6742;48.036;15.780;2023-01-15T15:23:58;6.50;99.90
13346;DHT22;6742;48.036;15.780;2023-01-15T15:26:31;6.50;99.90
13346;DHT22;6742;48.036;15.780;2023-01-15T15:28:59;6.50;99.90
13346;DHT22;6742;48.036;15.780;2023-01-15T15:31:30;6.40;99.90
13346;DHT22;6742;48.036;15.780;2023-01-15T15:33:58;6.40;99.90
13346;DHT22;6742;48.036;15.780;2023-01-15T15:36:27;6.40;99.90
13346;DHT22;6742;48.036;15.780;2023-01-15T15:38:57;6.40;99.90
13346;DHT22;6742;48.036;15.780;2023-01-15T15:41:28;6.40;99.90
13346;DHT22;6742;48.036;15.780;2023-01-15T15:44:17;6.30;99.90
13346;DHT22;6742;48.036;15.780;2023-01-15T15:47:20;6.30;99.90
13346;DHT22;6742;48.036;15.780;2023-01-15T15:50:05;6.30;99.90
13346;DHT22;6742;48.036;15.780;2023-01-15T15:52:35;6.30;99.90
13346;DHT22;6742;48.036;15.780;2023-01-15T15:55:14;6.30;99.90
13346;DHT22;6742;48.036;15.780;2023-01-15T15:57:44;6.30;99.90
13346;DHT22;6742;48.036;15.780;2023-01-15T16:00:17;6.30;99.90
13346;DHT22;6742;48.036;15.780;2023-01-15T16:02:46;6.20;99.90
13346;DHT22;6742;48.036;15.780;2023-01-15T16:05:21;6.10;99.90
13346;DHT22;6742;48.036;15.780;2023-01-15T16:07:49;6.20;99.90
13346;DHT22;6742;48.036;15.780;2023-01-15T16:10:18;6.20;99.90
13346;DHT22;6742;48.036;15.780;2023-01-15T16:12:48;6.20;99.90
13346;DHT22;6742;48.036;15.780;2023-01-15T16:15:19;6.10;99.90
13346;DHT22;6742;48.036;15.780;2023-01-15T16:17:48;6.20;99.90
13346;DHT22;6742;48.036;15.780;2023-01-15T16:20:18;6.20;99.90
13346;DHT22;6742;48.036;15.780;2023-01-15T16:22:46;6.20;99.90